Latest Weather Observations for Cunderdin Airport

IDW60801

Issued at 1:33 pm WST Wednesday 18 January 2017 (issued every 30 minutes, with the page automatically refreshed every 10 minutes)

About weather observations | Map of weather stations | Latest weather observations for WA | Other Formats
Station Details ID: 010286 Name: CUNDERDIN AIRFIELD Lat: -31.62 Lon: 117.22 Height: 216.7 m
Data from the previous 72 hours. | See also: Recent months at Cunderdin Airport
Date/Time
WST
Temp
°C
App
Temp
°C
Dew
Point
°C
Rel
Hum
%
Delta-T
°C
Wind Press
QNH
hPa
Press
MSL
hPa
Rain since
9am
mm
Dir  Spd
km/h
Gust
km/h
Spd
kts
Gust
kts
18/01:30pm 30.9 28.6 11.8 31 11.3 ESE 15 22 8 12 1008.6 1007.4 0.0
18/01:00pm 29.0 26.8 12.0 35 10.0 E 15 20 8 11 1009.4 1008.2 0.0
18/12:30pm 27.5 24.6 11.1 36 9.4 ENE 17 22 9 12 1010.1 1008.8 0.0
18/12:00pm 27.1 24.1 10.8 36 9.3 ENE 17 24 9 13 1010.8 1009.5 0.0
18/11:30am 27.0 24.0 10.7 36 9.3 ENE 17 28 9 15 1011.3 1010.1 0.0
18/11:00am 26.5 22.9 10.6 37 9.0 ENE 20 28 11 15 1011.6 1010.4 0.0
18/10:30am 25.1 22.0 10.2 39 8.3 E 17 26 9 14 1012.1 1010.9 0.0
18/10:00am 24.9 21.3 10.4 40 8.1 ENE 20 33 11 18 1012.5 1011.3 0.0
18/09:30am 24.5 19.3 10.4 41 7.9 ENE 28 35 15 19 1012.8 1011.6 0.0
18/09:00am 23.5 19.2 10.9 45 7.1 ENE 24 33 13 18 1013.2 1012.0 0.0
18/08:30am 21.8 17.3 10.0 47 6.5 E 24 35 13 19 1013.7 1012.5 0.0
18/08:00am 20.7 15.3 9.6 49 6.0 E 28 35 15 19 1013.9 1012.7 0.0
18/07:30am 18.9 13.7 8.8 52 5.3 E 26 37 14 20 1014.0 1012.8 0.0
18/07:00am 17.6 13.1 8.5 55 4.7 E 22 32 12 17 1014.1 1012.9 0.0
18/06:30am 16.3 12.2 8.0 58 4.2 ESE 19 28 10 15 1014.2 1013.0 0.0
18/06:00am 15.2 11.4 7.7 61 3.8 ESE 17 24 9 13 1014.1 1012.9 0.0
18/05:30am 14.8 11.4 7.6 62 3.6 ESE 15 20 8 11 1014.2 1013.0 0.0
18/05:00am 15.3 10.9 7.6 60 3.9 ESE 20 26 11 14 1013.7 1012.5 0.0
18/04:30am 15.5 10.7 7.5 59 4.0 E 22 28 12 15 1013.6 1012.4 0.0
18/04:00am 15.7 11.3 7.2 57 4.3 ESE 20 30 11 16 1013.4 1012.2 0.0
18/03:30am 16.0 11.5 7.0 55 4.5 ESE 20 30 11 16 1013.1 1011.9 0.0
18/03:00am 16.6 11.8 7.3 54 4.7 ESE 22 30 12 16 1013.0 1011.8 0.0
18/02:30am 17.0 12.7 7.1 52 5.0 ESE 19 30 10 16 1013.1 1011.9 0.0
18/02:00am 17.7 12.9 7.2 50 5.3 SE 22 33 12 18 1013.2 1012.0 0.0
18/01:30am 18.3 13.8 6.8 47 5.8 SE 20 28 11 15 1013.4 1012.2 0.0
18/01:00am 19.1 15.0 6.2 43 6.5 ESE 17 24 9 13 1013.7 1012.5 0.0
18/12:30am 19.9 16.4 7.3 44 6.5 ESE 15 22 8 12 1013.7 1012.5 0.0
18/12:00am 21.1 17.8 9.4 47 6.3 ESE 17 24 9 13 1013.7 1012.5 0.0
 
Date/Time
WST
Temp
°C
App
Temp
°C
Dew
Point
°C
Rel
Hum
%
Delta-T
°C
Wind Press
QNH
hPa
Press
MSL
hPa
Rain since
9am
mm
Dir  Spd
km/h
Gust
km/h
Spd
kts
Gust
kts
17/11:30pm 21.9 17.6 9.4 45 6.8 E 22 32 12 17 1013.8 1012.6 0.0
17/11:00pm 22.2 18.5 9.4 44 6.9 E 19 26 10 14 1013.8 1012.6 0.0
17/10:30pm 22.8 18.5 9.2 42 7.4 E 22 28 12 15 1013.9 1012.7 0.0
17/10:00pm 23.8 19.1 9.4 40 7.9 E 24 33 13 18 1013.7 1012.5 0.0
17/09:30pm 24.5 19.9 8.0 35 8.8 E 22 28 12 15 1013.7 1012.5 0.0
17/09:00pm 24.7 20.5 5.5 29 9.9 ESE 17 24 9 13 1013.3 1012.1 0.0
17/08:30pm 24.9 21.0 5.2 28 10.1 SE 15 20 8 11 1012.9 1011.7 0.0
17/08:00pm 25.7 22.2 5.3 27 10.5 SE 13 17 7 9 1012.4 1011.2 0.0
17/07:30pm 26.5 22.3 5.5 26 10.9 SE 17 24 9 13 1012.1 1010.9 0.0
17/07:00pm 27.6 23.0 5.8 25 11.5 SE 19 26 10 14 1011.8 1010.6 0.0
17/06:30pm 28.3 23.5 5.8 24 11.9 SE 20 32 11 17 1011.6 1010.4 0.0
17/06:00pm 28.9 24.3 6.3 24 12.1 SE 20 30 11 16 1011.4 1010.2 0.0
17/05:30pm 29.2 24.5 6.0 23 12.3 ESE 20 30 11 16 1011.2 1010.0 0.0
17/05:00pm 29.3 24.0 6.7 24 12.2 SE 24 41 13 22 1011.2 1010.0 0.0
17/04:30pm 29.6 24.3 6.9 24 12.3 SE 24 33 13 18 1011.4 1010.2 0.0
17/04:00pm 29.9 24.3 7.2 24 12.4 SE 26 37 14 20 1011.5 1010.3 0.0
17/03:30pm 29.7 24.6 7.6 25 12.1 ESE 24 35 13 19 1011.9 1010.7 0.0
17/03:00pm 29.4 24.5 8.5 27 11.6 ESE 24 37 13 20 1012.1 1010.9 0.0
17/02:30pm 28.7 23.8 8.4 28 11.2 ESE 24 35 13 19 1012.5 1011.3 0.0
17/02:00pm 28.6 23.7 8.3 28 11.2 ESE 24 35 13 19 1012.7 1011.5 0.0
17/01:30pm 28.0 22.7 8.3 29 10.8 ESE 26 41 14 22 1013.1 1011.9 0.0
17/01:00pm 27.8 22.5 8.6 30 10.6 ESE 26 44 14 24 1013.4 1012.2 0.0
17/12:30pm 26.7 22.3 9.1 33 9.7 ESE 22 37 12 20 1013.8 1012.6 0.0
17/12:00pm 25.9 21.1 8.8 34 9.4 ESE 24 37 13 20 1014.0 1012.8 0.0
17/11:30am 25.6 20.7 8.6 34 9.3 ESE 24 37 13 20 1014.2 1013.0 0.0
17/11:00am 24.7 19.4 8.6 36 8.7 ESE 26 37 14 20 1014.7 1013.4 0.0
17/10:30am 24.3 19.4 8.3 36 8.6 E 24 33 13 18 1015.1 1013.8 0.0
17/10:00am 22.3 16.2 8.4 41 7.4 E 30 43 16 23 1015.4 1014.2 0.0
17/09:30am 21.2 14.9 8.8 45 6.6 E 32 41 17 22 1015.7 1014.5 0.0
17/09:00am 20.6 15.0 8.9 47 6.2 ESE 28 43 15 23 1015.7 1014.5 0.0
17/08:30am 19.3 13.7 8.9 51 5.5 ESE 28 39 15 21 1015.8 1014.6 0.0
17/08:00am 17.9 11.7 9.3 57 4.5 ESE 32 43 17 23 1016.0 1014.8 0.0
17/07:30am 17.3 11.1 9.2 59 4.3 ESE 32 44 17 24 1015.9 1014.7 0.0
17/07:00am 16.5 10.7 9.4 63 3.7 SE 30 41 16 22 1015.7 1014.5 0.0
17/06:30am 16.4 10.9 9.3 63 3.7 SE 28 43 15 23 1015.5 1014.3 0.0
17/06:07am 16.1 10.6 9.3 64 3.6 ESE 28 48 15 26 1015.2 1013.9 0.0
17/06:00am 16.3 11.7 9.5 64 3.6 ESE 24 32 13 17 1015.2 1013.9 0.0
17/05:30am 16.3 11.5 9.0 62 3.8 SE 24 41 13 22 1014.8 1013.5 0.0
17/05:00am 16.3 11.1 8.8 61 3.9 SE 26 35 14 19 1014.3 1013.1 0.0
17/04:30am 16.4 10.7 8.4 59 4.1 SE 28 37 15 20 1013.8 1012.6 0.0
17/04:00am 16.7 10.7 8.7 59 4.1 SE 30 43 16 23 1013.4 1012.2 0.0
17/03:30am 16.9 11.3 8.6 58 4.3 SE 28 37 15 20 1013.1 1011.9 0.0
17/03:00am 17.2 11.6 8.9 58 4.3 SE 28 39 15 21 1012.7 1011.5 0.0
17/02:30am 17.6 12.2 9.5 59 4.3 SE 28 39 15 21 1012.5 1011.3 0.0
17/02:00am 18.0 13.6 10.4 61 4.1 SE 24 35 13 19 1012.1 1010.9 0.0
17/01:30am 18.4 14.0 10.5 60 4.3 SE 24 39 13 21 1012.0 1010.8 0.0
17/01:00am 18.5 14.8 10.1 58 4.5 SE 20 30 11 16 1011.8 1010.6 0.0
17/12:30am 18.6 13.3 9.9 57 4.7 SE 28 43 15 23 1011.5 1010.3 0.0
17/12:00am 18.7 12.7 10.0 57 4.7 SE 32 44 17 24 1011.4 1010.2 0.0
 
Date/Time
WST
Temp
°C
App
Temp
°C
Dew
Point
°C
Rel
Hum
%
Delta-T
°C
Wind Press
QNH
hPa
Press
MSL
hPa
Rain since
9am
mm
Dir  Spd
km/h
Gust
km/h
Spd
kts
Gust
kts
16/11:30pm 19.1 12.9 10.1 56 4.9 SE 33 46 18 25 1011.1 1009.8 0.0
16/11:00pm 19.5 13.3 10.2 55 5.1 SE 33 50 18 27 1011.2 1010.0 0.0
16/10:32pm 20.3 13.8 10.4 53 5.4 SE 35 54 19 29 1010.9 1009.6 0.0
16/10:30pm 20.3 13.4 10.4 53 5.4 SE 37 54 20 29 1010.9 1009.6 0.0
16/10:15pm 20.5 14.1 10.6 53 5.4 SE 35 56 19 30 1010.6 1009.3 0.0
16/10:00pm 21.0 13.8 10.5 51 5.8 SE 39 54 21 29 1010.5 1009.2 0.0
16/09:47pm 21.6 15.5 10.4 49 6.2 SE 33 52 18 28 1010.3 1009.0 0.0
16/09:30pm 22.5 16.0 10.3 46 6.7 SSE 35 50 19 27 1010.1 1008.8 0.0
16/09:16pm 22.7 15.8 10.2 45 6.9 SSE 37 56 20 30 1010.0 1008.7 0.0
16/09:00pm 23.9 16.5 9.9 41 7.8 SSE 39 54 21 29 1009.7 1008.4 0.0
16/08:49pm 25.3 21.0 9.2 36 8.9 SE 22 52 12 28 1009.4 1008.2 0.0
16/08:30pm 28.7 24.6 6.1 24 12.0 SE 17 26 9 14 1008.9 1007.7 0.0
16/08:00pm 29.0 25.6 5.8 23 12.3 SSE 13 19 7 10 1008.6 1007.4 0.0
16/07:30pm 29.7 24.9 5.7 22 12.7 SSE 20 26 11 14 1008.2 1007.0 0.0
16/07:00pm 30.4 25.8 6.3 22 13.0 SSE 20 28 11 15 1007.8 1006.6 0.0
16/06:30pm 31.1 26.2 6.9 22 13.2 SSE 22 30 12 16 1007.6 1006.4 0.0
16/06:00pm 31.8 27.7 6.1 20 13.9 SSE 17 24 9 13 1007.3 1006.1 0.0
16/05:30pm 32.0 27.5 7.0 21 13.7 S 20 26 11 14 1007.1 1005.9 0.0
16/05:00pm 31.7 27.3 6.7 21 13.7 SSE 19 28 10 15 1007.2 1006.0 0.0
16/04:30pm 32.0 28.2 7.6 22 13.5 SSE 17 24 9 13 1007.2 1006.0 0.0
16/04:00pm 31.6 26.8 7.3 22 13.4 S 22 30 12 16 1007.4 1006.2 0.0
16/03:30pm 31.7 27.5 7.4 22 13.4 S 19 28 10 15 1007.6 1006.4 0.0
16/03:00pm 32.2 27.5 7.8 22 13.6 S 22 35 12 19 1007.7 1006.5 0.0
16/02:30pm 32.3 27.2 9.2 24 13.2 SSW 26 35 14 19 1007.5 1006.3 0.0
16/02:00pm 31.2 26.6 8.2 24 12.8 S 22 33 12 18 1007.7 1006.5 0.0
16/01:30pm 31.2 26.6 8.2 24 12.8 S 22 33 12 18 1007.9 1006.7 0.0
16/01:00pm 30.5 25.4 7.7 24 12.6 S 24 35 13 19 1008.4 1007.2 0.0
16/12:30pm 30.0 24.3 6.6 23 12.6 SSW 26 37 14 20 1008.6 1007.4 0.0
16/12:00pm 28.8 24.5 7.9 27 11.5 S 20 33 11 18 1008.8 1007.6 0.0
16/11:30am 28.4 24.3 8.7 29 10.9 S 20 33 11 18 1009.1 1007.9 0.0
16/11:00am 26.6 22.2 7.6 30 10.3 S 20 26 11 14 1009.2 1008.0 0.0
16/10:30am 26.4 21.4 7.9 31 10.0 SSE 24 33 13 18 1009.3 1008.1 0.0
16/10:00am 25.0 20.0 8.1 34 9.1 SSE 24 37 13 20 1009.6 1008.3 0.0
16/09:30am 22.2 17.4 9.0 43 7.1 SSE 24 39 13 21 1009.7 1008.4 0.0
16/09:00am 21.9 16.2 9.8 46 6.6 SSE 30 39 16 21 1009.9 1008.6 0.0
16/08:30am 20.9 16.0 10.1 50 5.9 SSE 26 32 14 17 1010.0 1008.7 0.0
16/08:00am 20.5 16.2 10.6 53 5.5 SSE 24 32 13 17 1010.1 1008.8 0.0
16/07:30am 18.3 13.6 10.7 61 4.1 SSE 26 35 14 19 1010.1 1008.8 0.0
16/07:00am 18.0 13.2 10.4 61 4.1 SSE 26 35 14 19 1009.7 1008.4 0.0
16/06:30am 17.7 13.7 10.3 62 4.0 SSE 22 30 12 16 1009.7 1008.4 0.0
16/06:00am 17.6 13.6 10.5 63 3.8 SSE 22 28 12 15 1009.4 1008.2 0.0
16/05:30am 17.9 15.0 11.0 64 3.8 SSE 17 28 9 15 1008.9 1007.7 0.0
16/05:00am 17.9 15.1 11.2 65 3.7 SSE 17 20 9 11 1008.4 1007.2 0.0
16/04:30am 18.2 15.0 11.3 64 3.8 SE 19 26 10 14 1008.2 1007.0 0.0
16/04:00am 18.8 16.2 11.9 64 3.9 SE 17 24 9 13 1008.0 1006.8 0.0
16/03:30am 19.3 16.9 12.6 65 3.8 SSE 17 24 9 13 1007.5 1006.3 0.0
16/03:00am 20.0 17.0 12.7 63 4.2 SSE 20 30 11 16 1007.5 1006.3 0.0
16/02:30am 20.6 18.4 13.3 63 4.2 SE 17 26 9 14 1007.8 1006.6 0.0
16/02:00am 21.5 18.4 13.4 60 4.7 SE 22 30 12 16 1007.8 1006.6 0.0
16/01:30am 22.3 19.3 13.6 58 5.1 SE 22 30 12 16 1007.9 1006.7 0.0
16/01:00am 23.3 20.8 14.0 56 5.5 SE 20 30 11 16 1007.8 1006.6 0.0
16/12:30am 24.7 21.7 14.8 54 6.0 SSE 24 39 13 21 1007.5 1006.3 0.0
16/12:00am 25.9 23.1 14.4 49 6.9 SSE 22 32 12 17 1007.1 1005.9 0.0
 
Date/Time
WST
Temp
°C
App
Temp
°C
Dew
Point
°C
Rel
Hum
%
Delta-T
°C
Wind Press
QNH
hPa
Press
MSL
hPa
Rain since
9am
mm
Dir  Spd
km/h
Gust
km/h
Spd
kts
Gust
kts
15/11:30pm 26.5 23.1 7.5 30 10.2 S 15 20 8 11 1007.0 1005.7 0.0
15/11:00pm 26.7 23.0 6.2 27 10.8 SW 15 20 8 11 1006.9 1005.6 0.0
15/10:30pm 27.0 23.7 6.4 27 10.9 SW 13 17 7 9 1006.7 1005.4 0.0
15/10:00pm 27.7 23.3 6.5 26 11.3 SW 19 28 10 15 1006.8 1005.5 0.0
15/09:30pm 29.4 24.7 7.9 26 11.8 SW 22 28 12 15 1006.5 1005.2 0.0
15/09:00pm 30.2 27.2 9.1 27 11.9 WSW 15 20 8 11 1006.2 1004.9 0.0
15/08:30pm 31.7 27.8 8.7 24 13.0 WSW 19 22 10 12 1005.6 1004.3 0.0
15/08:00pm 32.6 29.0 6.7 20 14.2 WSW 15 19 8 10 1005.4 1004.1 0.0
15/07:30pm 34.5 29.8 5.9 17 15.6 WSW 20 28 11 15 1005.0 1003.7 0.0
15/07:00pm 36.3 30.0 3.5 13 17.5 WSW 26 35 14 19 1004.4 1003.2 0.0
15/06:30pm 37.7 29.8 2.2 11 18.6 WSW 33 43 18 23 1004.2 1003.0 0.0
15/06:00pm 39.0 31.0 1.9 10 19.6 WSW 33 44 18 24 1004.0 1002.8 0.0
15/05:35pm 39.9 33.5 1.1 9 20.3 W 24 57 13 31 1003.6 1002.4 0.0
15/05:34pm 39.9 33.9 1.1 9 20.3 W 22 57 12 31 1003.6 1002.4 0.0
15/05:33pm 40.4 34.2 -0.2 8 20.8 W 22 57 12 31 1003.2 1002.0 0.0
15/05:30pm 40.8 35.6 0.1 8 21.0 WSW 17 30 9 16 1003.7 1002.5 0.0
15/05:00pm 41.0 36.3 -1.6 7 21.6 WSW 13 22 7 12 1003.6 1002.4 0.0
15/04:30pm 40.6 35.5 -1.9 7 21.3 NW 15 35 8 19 1003.9 1002.7 0.0
15/04:00pm 41.2 36.9 -1.4 7 21.7 NW 11 20 6 11 1004.1 1002.9 0.0
15/03:30pm 41.4 34.0 -3.4 6 22.1 WSW 26 35 14 19 1004.4 1003.2 0.0
15/03:00pm 41.8 35.6 -3.1 6 22.3 WNW 20 30 11 16 1005.0 1003.7 0.0
15/02:30pm 40.9 36.7 -3.7 6 21.8 NW 9 26 5 14 1005.5 1004.2 0.0
15/02:00pm 41.3 36.0 -3.4 6 22.1 NW 15 28 8 15 1005.9 1004.6 0.0

Other Formats:

Comma delimited format used in spreadsheet applications
http://www.bom.gov.au/fwo/IDW60801/IDW60801.95625.axf

JavaScript Object Notation format (JSON) in row-major order
http://www.bom.gov.au/fwo/IDW60801/IDW60801.95625.json